Terminal Aerodrome Forecast
Issued by NWS Twin Cities, MN

Home | Current Version | Previous Version | Graphics & Text | Print | Product List | Glossary On
Versions: 1 2 3 4 5 6 7 8 9 10 11 12 13 14 15 16 17 18 19 20 21
000
FTUS43 KMPX 260236 AAA
TAFSTC
TAF AMD
KSTC 260236Z 2603/2624 16003KT P6SM BKN150
     FM260400 17005KT P6SM OVC020
     FM260600 18007KT P6SM OVC015
     FM260800 19010KT 6SM -SN BR OVC012
     FM261400 27007KT 6SM BR SCT015 BKN100
     FM261800 31011G18KT P6SM SCT025 BKN100=

USA.gov is the U.S. government's official web portal to all federal, state and local government web resources and services.